Página principal
METAR-TAF:

METAR-TAF

Aeroportos :

Aeroporto Internacional do Kuwait

Kuwait, Kuwait

latitude: 29-13N, longitude: 047-59E, altura: 55 m

Observação actual do tempo

O boletim foi feito há 31 minutos, às 01:00 UTC
Vento 5 kt de sudoeste
Temperatura 28°C
Humidade 94%
Pressão 1005 hPa
Visibilidade: 5000 m
Céu limpo
neblina

METAR: OKBK 200100Z 23005KT 5000 BR SKC 28/27 Q1005 NOSIG

Hora: 04:31 (01:31 UTC)

Previsão

O boletim foi feito há 2 horas e 46 minutos, às 22:45 UTC
Previsão válida de 20 às 00 UTC a 21 às 06 UTC
Vento 3 kt com direcção variável
Visibilidade: 6000 m
Céu limpo
Temporariamente
de 20 às 00 UTC a 20 às 05 UTC
Visibilidade: 2000 m
neblina

TAF: OKBK 192245Z 2000/2106 VRB03KT 6000 SKC TEMPO 2000/2005 2000 BR

Observações e previsões do tempo de mais de 4000 aeroportos (mensagens METAR e TAF).

As estações disponíveis são os pontos amarelos e vermelhos sobre o mapa.

Mova o rato sobre o mapa para ver o nome da estação.

Depois clique no ponto para visualizar as observações e previsões meteorológicas.

Para alterar o mapa : clique nos botões verdes com uma cruz preta para aumentar o zoom; no botão verde com uma pitada de zoom; ou nas setas verdes para mapas adjacentes.


METAR-TAF: